sensor_id;sensor_type;location;lat;lon;timestamp;P1;durP1;ratioP1;P2;durP2;ratioP2
515;SDS011;244;48.508;9.052;2022-08-04T00:02:30;2.60;;;1.57;;
515;SDS011;244;48.508;9.052;2022-08-04T00:05:09;1.50;;;1.40;;
515;SDS011;244;48.508;9.052;2022-08-04T00:07:51;1.37;;;1.27;;
515;SDS011;244;48.508;9.052;2022-08-04T00:10:27;1.70;;;1.60;;
515;SDS011;244;48.508;9.052;2022-08-04T00:12:59;1.53;;;1.43;;
515;SDS011;244;48.508;9.052;2022-08-04T00:15:30;2.27;;;1.23;;
515;SDS011;244;48.508;9.052;2022-08-04T00:17:59;1.40;;;1.30;;
515;SDS011;244;48.508;9.052;2022-08-04T00:20:31;1.73;;;1.63;;
515;SDS011;244;48.508;9.052;2022-08-04T00:22:59;1.87;;;1.83;;
515;SDS011;244;48.508;9.052;2022-08-04T00:25:28;1.63;;;1.57;;
515;SDS011;244;48.508;9.052;2022-08-04T00:27:55;2.27;;;2.07;;
515;SDS011;244;48.508;9.052;2022-08-04T00:30:23;1.50;;;1.40;;
515;SDS011;244;48.508;9.052;2022-08-04T00:32:50;1.73;;;1.50;;
515;SDS011;244;48.508;9.052;2022-08-04T00:35:17;1.60;;;1.50;;
515;SDS011;244;48.508;9.052;2022-08-04T00:37:45;1.60;;;1.50;;
515;SDS011;244;48.508;9.052;2022-08-04T00:40:22;1.90;;;1.80;;
515;SDS011;244;48.508;9.052;2022-08-04T00:42:57;1.63;;;1.53;;
515;SDS011;244;48.508;9.052;2022-08-04T00:45:37;1.43;;;1.30;;
515;SDS011;244;48.508;9.052;2022-08-04T00:48:22;2.27;;;2.07;;
515;SDS011;244;48.508;9.052;2022-08-04T00:51:04;1.97;;;1.87;;
515;SDS011;244;48.508;9.052;2022-08-04T00:53:43;2.00;;;1.60;;
515;SDS011;244;48.508;9.052;2022-08-04T00:56:31;1.67;;;1.60;;
515;SDS011;244;48.508;9.052;2022-08-04T00:59:16;1.87;;;1.80;;
515;SDS011;244;48.508;9.052;2022-08-04T01:01:58;2.13;;;1.97;;
515;SDS011;244;48.508;9.052;2022-08-04T01:04:29;2.07;;;1.93;;
515;SDS011;244;48.508;9.052;2022-08-04T01:07:14;1.67;;;1.57;;
515;SDS011;244;48.508;9.052;2022-08-04T01:09:54;1.43;;;1.40;;
515;SDS011;244;48.508;9.052;2022-08-04T01:12:42;1.70;;;1.57;;
515;SDS011;244;48.508;9.052;2022-08-04T01:15:24;1.90;;;1.80;;
515;SDS011;244;48.508;9.052;2022-08-04T01:18:03;1.40;;;1.40;;
515;SDS011;244;48.508;9.052;2022-08-04T01:20:32;4.63;;;1.80;;
515;SDS011;244;48.508;9.052;2022-08-04T01:29:21;3.13;;;2.93;;
515;SDS011;244;48.508;9.052;2022-08-04T01:31:54;2.13;;;1.97;;
515;SDS011;244;48.508;9.052;2022-08-04T01:34:29;2.20;;;2.00;;
515;SDS011;244;48.508;9.052;2022-08-04T01:37:03;1.63;;;1.57;;
515;SDS011;244;48.508;9.052;2022-08-04T01:39:37;2.30;;;2.10;;
515;SDS011;244;48.508;9.052;2022-08-04T01:42:13;2.40;;;2.20;;
515;SDS011;244;48.508;9.052;2022-08-04T01:44:46;2.87;;;2.33;;
515;SDS011;244;48.508;9.052;2022-08-04T01:47:13;2.30;;;2.10;;
515;SDS011;244;48.508;9.052;2022-08-04T01:49:43;4.00;;;2.20;;
515;SDS011;244;48.508;9.052;2022-08-04T01:52:15;2.13;;;1.97;;
515;SDS011;244;48.508;9.052;2022-08-04T01:54:42;1.63;;;1.53;;
515;SDS011;244;48.508;9.052;2022-08-04T01:57:11;2.20;;;2.00;;
515;SDS011;244;48.508;9.052;2022-08-04T01:59:38;2.27;;;1.80;;
515;SDS011;244;48.508;9.052;2022-08-04T02:02:07;1.63;;;1.53;;
515;SDS011;244;48.508;9.052;2022-08-04T02:04:34;1.70;;;1.60;;
515;SDS011;244;48.508;9.052;2022-08-04T02:07:06;2.47;;;2.03;;
515;SDS011;244;48.508;9.052;2022-08-04T02:09:42;1.50;;;1.40;;
515;SDS011;244;48.508;9.052;2022-08-04T02:12:19;1.77;;;1.70;;
515;SDS011;244;48.508;9.052;2022-08-04T02:14:55;2.77;;;1.83;;
515;SDS011;244;48.508;9.052;2022-08-04T02:17:28;2.03;;;1.90;;
515;SDS011;244;48.508;9.052;2022-08-04T02:20:06;1.57;;;1.47;;
515;SDS011;244;48.508;9.052;2022-08-04T02:22:38;2.03;;;1.90;;
515;SDS011;244;48.508;9.052;2022-08-04T02:25:08;1.70;;;1.60;;
515;SDS011;244;48.508;9.052;2022-08-04T02:27:43;1.80;;;1.70;;
515;SDS011;244;48.508;9.052;2022-08-04T02:30:32;2.13;;;1.97;;
515;SDS011;244;48.508;9.052;2022-08-04T02:33:07;4.47;;;2.27;;
515;SDS011;244;48.508;9.052;2022-08-04T02:35:37;1.90;;;1.80;;
515;SDS011;244;48.508;9.052;2022-08-04T02:38:10;1.50;;;1.40;;
515;SDS011;244;48.508;9.052;2022-08-04T02:40:57;2.60;;;1.90;;
515;SDS011;244;48.508;9.052;2022-08-04T02:43:27;1.73;;;1.63;;
515;SDS011;244;48.508;9.052;2022-08-04T02:45:55;2.00;;;1.87;;
515;SDS011;244;48.508;9.052;2022-08-04T02:48:24;2.00;;;1.90;;
515;SDS011;244;48.508;9.052;2022-08-04T02:50:53;2.37;;;2.23;;
515;SDS011;244;48.508;9.052;2022-08-04T02:53:23;3.10;;;1.83;;
515;SDS011;244;48.508;9.052;2022-08-04T02:55:52;1.80;;;1.70;;
515;SDS011;244;48.508;9.052;2022-08-04T02:58:21;2.50;;;1.93;;
515;SDS011;244;48.508;9.052;2022-08-04T03:00:53;4.20;;;2.07;;
515;SDS011;244;48.508;9.052;2022-08-04T03:03:20;1.70;;;1.60;;
515;SDS011;244;48.508;9.052;2022-08-04T03:06:11;1.80;;;1.67;;
515;SDS011;244;48.508;9.052;2022-08-04T03:09:16;1.83;;;1.77;;
515;SDS011;244;48.508;9.052;2022-08-04T03:15:06;2.03;;;1.90;;
515;SDS011;244;48.508;9.052;2022-08-04T03:18:09;3.00;;;2.30;;
515;SDS011;244;48.508;9.052;2022-08-04T03:21:00;1.73;;;1.63;;
515;SDS011;244;48.508;9.052;2022-08-04T03:24:07;2.00;;;1.90;;
515;SDS011;244;48.508;9.052;2022-08-04T03:26:57;2.90;;;2.10;;
515;SDS011;244;48.508;9.052;2022-08-04T03:36:02;2.13;;;1.97;;
515;SDS011;244;48.508;9.052;2022-08-04T03:41:38;1.40;;;1.30;;
515;SDS011;244;48.508;9.052;2022-08-04T03:47:28;2.17;;;2.00;;
515;SDS011;244;48.508;9.052;2022-08-04T03:53:35;2.33;;;2.13;;
515;SDS011;244;48.508;9.052;2022-08-04T04:01:58;1.90;;;1.80;;
515;SDS011;244;48.508;9.052;2022-08-04T04:04:44;1.70;;;1.60;;
515;SDS011;244;48.508;9.052;2022-08-04T04:07:31;1.87;;;1.77;;
515;SDS011;244;48.508;9.052;2022-08-04T04:10:31;1.90;;;1.80;;
515;SDS011;244;48.508;9.052;2022-08-04T04:13:08;1.80;;;1.70;;
515;SDS011;244;48.508;9.052;2022-08-04T04:16:15;5.20;;;2.70;;
515;SDS011;244;48.508;9.052;2022-08-04T04:18:51;3.50;;;2.37;;
515;SDS011;244;48.508;9.052;2022-08-04T04:21:51;1.47;;;1.37;;
515;SDS011;244;48.508;9.052;2022-08-04T04:24:44;1.90;;;1.80;;
515;SDS011;244;48.508;9.052;2022-08-04T04:27:36;3.10;;;2.60;;
515;SDS011;244;48.508;9.052;2022-08-04T04:30:10;3.00;;;1.90;;
515;SDS011;244;48.508;9.052;2022-08-04T04:32:47;2.37;;;2.23;;
515;SDS011;244;48.508;9.052;2022-08-04T04:35:40;2.00;;;1.93;;
515;SDS011;244;48.508;9.052;2022-08-04T04:38:22;1.97;;;1.87;;
515;SDS011;244;48.508;9.052;2022-08-04T04:41:04;2.23;;;1.67;;
515;SDS011;244;48.508;9.052;2022-08-04T04:43:50;1.90;;;1.80;;
515;SDS011;244;48.508;9.052;2022-08-04T04:46:37;2.47;;;1.87;;
515;SDS011;244;48.508;9.052;2022-08-04T04:49:13;3.47;;;1.60;;
515;SDS011;244;48.508;9.052;2022-08-04T04:51:48;1.87;;;1.87;;
515;SDS011;244;48.508;9.052;2022-08-04T04:54:20;2.30;;;2.13;;
515;SDS011;244;48.508;9.052;2022-08-04T04:56:52;2.00;;;1.90;;
515;SDS011;244;48.508;9.052;2022-08-04T04:59:31;2.20;;;2.00;;
515;SDS011;244;48.508;9.052;2022-08-04T05:02:10;2.20;;;2.00;;
515;SDS011;244;48.508;9.052;2022-08-04T05:05:02;2.37;;;2.17;;
515;SDS011;244;48.508;9.052;2022-08-04T05:10:38;2.07;;;1.93;;
515;SDS011;244;48.508;9.052;2022-08-04T05:13:21;2.17;;;2.00;;
515;SDS011;244;48.508;9.052;2022-08-04T05:16:00;2.13;;;1.97;;
515;SDS011;244;48.508;9.052;2022-08-04T05:18:32;3.03;;;2.40;;
515;SDS011;244;48.508;9.052;2022-08-04T05:21:08;2.13;;;1.93;;
515;SDS011;244;48.508;9.052;2022-08-04T05:23:48;2.87;;;2.70;;
515;SDS011;244;48.508;9.052;2022-08-04T05:26:22;1.60;;;1.50;;
515;SDS011;244;48.508;9.052;2022-08-04T05:28:55;1.67;;;1.57;;
515;SDS011;244;48.508;9.052;2022-08-04T05:31:27;1.90;;;1.80;;
515;SDS011;244;48.508;9.052;2022-08-04T05:33:59;6.73;;;2.40;;
515;SDS011;244;48.508;9.052;2022-08-04T05:36:32;1.80;;;1.70;;
515;SDS011;244;48.508;9.052;2022-08-04T05:39:03;2.30;;;2.10;;
515;SDS011;244;48.508;9.052;2022-08-04T05:41:32;2.20;;;2.00;;
515;SDS011;244;48.508;9.052;2022-08-04T05:44:01;2.63;;;2.27;;
515;SDS011;244;48.508;9.052;2022-08-04T05:46:30;3.17;;;2.93;;
515;SDS011;244;48.508;9.052;2022-08-04T05:48:58;2.57;;;2.33;;
515;SDS011;244;48.508;9.052;2022-08-04T05:51:25;2.80;;;2.60;;
515;SDS011;244;48.508;9.052;2022-08-04T05:53:54;2.27;;;2.07;;
515;SDS011;244;48.508;9.052;2022-08-04T05:56:22;2.63;;;2.43;;
515;SDS011;244;48.508;9.052;2022-08-04T05:58:50;2.30;;;2.10;;
515;SDS011;244;48.508;9.052;2022-08-04T06:01:19;2.63;;;2.27;;
515;SDS011;244;48.508;9.052;2022-08-04T06:03:48;3.00;;;2.80;;
515;SDS011;244;48.508;9.052;2022-08-04T06:06:16;2.80;;;2.60;;
515;SDS011;244;48.508;9.052;2022-08-04T06:08:44;2.60;;;2.40;;
515;SDS011;244;48.508;9.052;2022-08-04T06:11:13;3.10;;;2.90;;
515;SDS011;244;48.508;9.052;2022-08-04T06:13:43;2.70;;;2.50;;
515;SDS011;244;48.508;9.052;2022-08-04T06:16:14;2.90;;;2.43;;
515;SDS011;244;48.508;9.052;2022-08-04T06:18:44;4.30;;;2.43;;
515;SDS011;244;48.508;9.052;2022-08-04T06:21:17;2.63;;;2.43;;
515;SDS011;244;48.508;9.052;2022-08-04T06:23:47;3.30;;;2.47;;
515;SDS011;244;48.508;9.052;2022-08-04T06:26:15;3.13;;;2.23;;
515;SDS011;244;48.508;9.052;2022-08-04T06:28:44;2.20;;;2.00;;
515;SDS011;244;48.508;9.052;2022-08-04T06:31:13;2.23;;;2.03;;
515;SDS011;244;48.508;9.052;2022-08-04T06:33:57;2.57;;;2.30;;
515;SDS011;244;48.508;9.052;2022-08-04T06:36:27;2.23;;;2.03;;
515;SDS011;244;48.508;9.052;2022-08-04T06:38:56;5.20;;;3.13;;
515;SDS011;244;48.508;9.052;2022-08-04T06:41:25;2.37;;;2.17;;
515;SDS011;244;48.508;9.052;2022-08-04T06:43:53;3.07;;;2.87;;
515;SDS011;244;48.508;9.052;2022-08-04T06:46:24;2.90;;;2.70;;
515;SDS011;244;48.508;9.052;2022-08-04T06:48:52;2.57;;;2.37;;
515;SDS011;244;48.508;9.052;2022-08-04T06:51:21;3.10;;;2.90;;
515;SDS011;244;48.508;9.052;2022-08-04T06:53:49;3.17;;;2.67;;
515;SDS011;244;48.508;9.052;2022-08-04T06:56:18;2.73;;;2.60;;
515;SDS011;244;48.508;9.052;2022-08-04T06:58:46;2.23;;;2.03;;
515;SDS011;244;48.508;9.052;2022-08-04T07:01:15;3.17;;;2.97;;
515;SDS011;244;48.508;9.052;2022-08-04T07:03:44;2.77;;;2.57;;
515;SDS011;244;48.508;9.052;2022-08-04T07:06:12;5.50;;;3.13;;
515;SDS011;244;48.508;9.052;2022-08-04T07:08:41;2.73;;;2.33;;
515;SDS011;244;48.508;9.052;2022-08-04T07:11:08;2.70;;;2.50;;
515;SDS011;244;48.508;9.052;2022-08-04T07:13:38;2.50;;;2.30;;
515;SDS011;244;48.508;9.052;2022-08-04T07:16:07;3.47;;;2.87;;
515;SDS011;244;48.508;9.052;2022-08-04T07:18:38;2.50;;;2.30;;
515;SDS011;244;48.508;9.052;2022-08-04T07:21:08;2.60;;;2.40;;
515;SDS011;244;48.508;9.052;2022-08-04T07:23:36;2.90;;;2.70;;
515;SDS011;244;48.508;9.052;2022-08-04T07:26:04;2.73;;;2.53;;
515;SDS011;244;48.508;9.052;2022-08-04T07:28:31;2.43;;;2.23;;
515;SDS011;244;48.508;9.052;2022-08-04T07:30:58;3.30;;;3.10;;
515;SDS011;244;48.508;9.052;2022-08-04T07:33:29;4.63;;;2.37;;
515;SDS011;244;48.508;9.052;2022-08-04T07:35:56;5.53;;;3.23;;
515;SDS011;244;48.508;9.052;2022-08-04T07:38:26;2.93;;;2.73;;
515;SDS011;244;48.508;9.052;2022-08-04T07:40:52;2.80;;;2.60;;
515;SDS011;244;48.508;9.052;2022-08-04T07:43:21;2.93;;;2.50;;
515;SDS011;244;48.508;9.052;2022-08-04T07:45:49;2.97;;;2.77;;
515;SDS011;244;48.508;9.052;2022-08-04T07:48:16;2.93;;;2.73;;
515;SDS011;244;48.508;9.052;2022-08-04T07:50:43;2.13;;;1.97;;
515;SDS011;244;48.508;9.052;2022-08-04T07:53:11;2.67;;;2.47;;
515;SDS011;244;48.508;9.052;2022-08-04T07:55:39;2.27;;;2.07;;
515;SDS011;244;48.508;9.052;2022-08-04T07:58:06;2.60;;;2.40;;
515;SDS011;244;48.508;9.052;2022-08-04T08:00:34;2.83;;;2.40;;
515;SDS011;244;48.508;9.052;2022-08-04T08:03:01;4.20;;;2.33;;
515;SDS011;244;48.508;9.052;2022-08-04T08:05:29;2.70;;;2.50;;
515;SDS011;244;48.508;9.052;2022-08-04T08:07:57;2.30;;;2.10;;
515;SDS011;244;48.508;9.052;2022-08-04T08:10:24;1.97;;;1.87;;
515;SDS011;244;48.508;9.052;2022-08-04T08:12:52;1.60;;;1.50;;
515;SDS011;244;48.508;9.052;2022-08-04T08:15:19;1.83;;;1.73;;
515;SDS011;244;48.508;9.052;2022-08-04T08:17:48;2.17;;;2.00;;
515;SDS011;244;48.508;9.052;2022-08-04T08:20:15;1.93;;;1.83;;
515;SDS011;244;48.508;9.052;2022-08-04T08:22:42;1.73;;;1.63;;
515;SDS011;244;48.508;9.052;2022-08-04T08:25:10;1.50;;;1.40;;
515;SDS011;244;48.508;9.052;2022-08-04T08:27:37;2.30;;;2.10;;
515;SDS011;244;48.508;9.052;2022-08-04T08:30:04;3.90;;;1.90;;
515;SDS011;244;48.508;9.052;2022-08-04T08:32:32;1.70;;;1.60;;
515;SDS011;244;48.508;9.052;2022-08-04T08:35:01;1.60;;;1.50;;
515;SDS011;244;48.508;9.052;2022-08-04T08:37:29;2.50;;;1.70;;
515;SDS011;244;48.508;9.052;2022-08-04T08:40:07;1.60;;;1.50;;
515;SDS011;244;48.508;9.052;2022-08-04T08:42:53;2.03;;;1.90;;
515;SDS011;244;48.508;9.052;2022-08-04T08:48:57;1.70;;;1.60;;
515;SDS011;244;48.508;9.052;2022-08-04T08:51:37;2.20;;;2.00;;
515;SDS011;244;48.508;9.052;2022-08-04T08:54:20;2.13;;;1.97;;
515;SDS011;244;48.508;9.052;2022-08-04T08:57:14;1.70;;;1.60;;
515;SDS011;244;48.508;9.052;2022-08-04T08:59:52;1.40;;;1.30;;
515;SDS011;244;48.508;9.052;2022-08-04T09:02:41;1.70;;;1.60;;
515;SDS011;244;48.508;9.052;2022-08-04T09:05:39;2.50;;;1.70;;
515;SDS011;244;48.508;9.052;2022-08-04T09:08:22;2.83;;;1.90;;
515;SDS011;244;48.508;9.052;2022-08-04T09:11:07;1.70;;;1.50;;
515;SDS011;244;48.508;9.052;2022-08-04T09:13:39;3.43;;;2.20;;
515;SDS011;244;48.508;9.052;2022-08-04T09:16:15;5.20;;;2.33;;
515;SDS011;244;48.508;9.052;2022-08-04T09:18:53;2.00;;;1.70;;
515;SDS011;244;48.508;9.052;2022-08-04T09:21:29;3.07;;;2.07;;
515;SDS011;244;48.508;9.052;2022-08-04T09:24:05;1.70;;;1.60;;
515;SDS011;244;48.508;9.052;2022-08-04T09:26:38;2.47;;;2.30;;
515;SDS011;244;48.508;9.052;2022-08-04T09:29:11;1.60;;;1.50;;
515;SDS011;244;48.508;9.052;2022-08-04T09:31:43;1.80;;;1.70;;
515;SDS011;244;48.508;9.052;2022-08-04T09:34:18;1.80;;;1.70;;
515;SDS011;244;48.508;9.052;2022-08-04T09:36:50;1.90;;;1.80;;
515;SDS011;244;48.508;9.052;2022-08-04T09:39:25;7.33;;;1.90;;
515;SDS011;244;48.508;9.052;2022-08-04T09:41:59;1.40;;;1.30;;
515;SDS011;244;48.508;9.052;2022-08-04T09:44:37;1.83;;;1.73;;
515;SDS011;244;48.508;9.052;2022-08-04T09:47:12;1.60;;;1.53;;
515;SDS011;244;48.508;9.052;2022-08-04T09:49:45;1.53;;;1.43;;
515;SDS011;244;48.508;9.052;2022-08-04T09:52:19;1.80;;;1.70;;
515;SDS011;244;48.508;9.052;2022-08-04T09:54:58;2.30;;;2.10;;
515;SDS011;244;48.508;9.052;2022-08-04T10:00:18;1.60;;;1.50;;
515;SDS011;244;48.508;9.052;2022-08-04T10:02:47;1.60;;;1.50;;
515;SDS011;244;48.508;9.052;2022-08-04T10:05:19;1.20;;;1.10;;
515;SDS011;244;48.508;9.052;2022-08-04T10:07:56;1.73;;;1.63;;
515;SDS011;244;48.508;9.052;2022-08-04T10:10:39;1.63;;;1.53;;
515;SDS011;244;48.508;9.052;2022-08-04T10:13:17;1.30;;;1.20;;
515;SDS011;244;48.508;9.052;2022-08-04T10:16:02;1.60;;;1.50;;
515;SDS011;244;48.508;9.052;2022-08-04T10:18:38;1.20;;;1.10;;
515;SDS011;244;48.508;9.052;2022-08-04T10:21:17;1.07;;;0.97;;
515;SDS011;244;48.508;9.052;2022-08-04T10:23:56;1.20;;;1.10;;
515;SDS011;244;48.508;9.052;2022-08-04T10:26:41;0.97;;;0.90;;
515;SDS011;244;48.508;9.052;2022-08-04T10:29:15;1.10;;;1.00;;
515;SDS011;244;48.508;9.052;2022-08-04T10:31:59;1.50;;;1.40;;
515;SDS011;244;48.508;9.052;2022-08-04T10:34:35;1.57;;;1.40;;
515;SDS011;244;48.508;9.052;2022-08-04T10:37:09;1.40;;;1.30;;
515;SDS011;244;48.508;9.052;2022-08-04T10:39:45;1.57;;;1.47;;
515;SDS011;244;48.508;9.052;2022-08-04T10:42:39;1.17;;;1.07;;
515;SDS011;244;48.508;9.052;2022-08-04T10:45:16;1.63;;;1.10;;
515;SDS011;244;48.508;9.052;2022-08-04T10:47:55;1.30;;;1.20;;
515;SDS011;244;48.508;9.052;2022-08-04T10:50:27;1.07;;;1.03;;
515;SDS011;244;48.508;9.052;2022-08-04T10:52:55;1.10;;;1.00;;
515;SDS011;244;48.508;9.052;2022-08-04T10:55:30;1.60;;;1.50;;
515;SDS011;244;48.508;9.052;2022-08-04T10:58:04;1.90;;;1.80;;
515;SDS011;244;48.508;9.052;2022-08-04T11:00:35;1.37;;;1.27;;
515;SDS011;244;48.508;9.052;2022-08-04T11:03:05;1.67;;;1.57;;
515;SDS011;244;48.508;9.052;2022-08-04T11:05:40;1.77;;;1.67;;
515;SDS011;244;48.508;9.052;2022-08-04T11:08:14;1.40;;;1.30;;
515;SDS011;244;48.508;9.052;2022-08-04T11:10:44;1.63;;;1.53;;
515;SDS011;244;48.508;9.052;2022-08-04T11:13:17;1.50;;;1.40;;
515;SDS011;244;48.508;9.052;2022-08-04T11:15:46;1.80;;;1.70;;
515;SDS011;244;48.508;9.052;2022-08-04T11:18:22;1.53;;;1.43;;
515;SDS011;244;48.508;9.052;2022-08-04T11:20:54;1.40;;;1.30;;
515;SDS011;244;48.508;9.052;2022-08-04T11:23:27;1.63;;;1.53;;
515;SDS011;244;48.508;9.052;2022-08-04T11:26:00;1.67;;;1.27;;
515;SDS011;244;48.508;9.052;2022-08-04T11:28:37;1.40;;;1.30;;
515;SDS011;244;48.508;9.052;2022-08-04T11:31:13;1.30;;;1.20;;
515;SDS011;244;48.508;9.052;2022-08-04T11:33:48;1.33;;;1.20;;
515;SDS011;244;48.508;9.052;2022-08-04T11:36:19;2.33;;;2.13;;
515;SDS011;244;48.508;9.052;2022-08-04T11:38:52;1.30;;;1.20;;
515;SDS011;244;48.508;9.052;2022-08-04T11:41:25;1.40;;;1.30;;
515;SDS011;244;48.508;9.052;2022-08-04T11:44:05;1.57;;;1.53;;
515;SDS011;244;48.508;9.052;2022-08-04T11:46:38;1.23;;;1.13;;
515;SDS011;244;48.508;9.052;2022-08-04T11:49:09;1.57;;;1.33;;
515;SDS011;244;48.508;9.052;2022-08-04T11:51:40;1.23;;;1.13;;
515;SDS011;244;48.508;9.052;2022-08-04T11:54:09;1.70;;;1.60;;
515;SDS011;244;48.508;9.052;2022-08-04T11:56:37;1.70;;;1.60;;
515;SDS011;244;48.508;9.052;2022-08-04T11:59:06;4.33;;;2.03;;
515;SDS011;244;48.508;9.052;2022-08-04T12:01:34;1.60;;;1.50;;
515;SDS011;244;48.508;9.052;2022-08-04T12:04:15;1.20;;;1.10;;
515;SDS011;244;48.508;9.052;2022-08-04T12:06:51;1.87;;;1.77;;
515;SDS011;244;48.508;9.052;2022-08-04T12:09:25;3.60;;;1.60;;
515;SDS011;244;48.508;9.052;2022-08-04T12:11:59;1.37;;;1.27;;
515;SDS011;244;48.508;9.052;2022-08-04T12:14:39;2.10;;;1.70;;
515;SDS011;244;48.508;9.052;2022-08-04T12:17:12;1.83;;;1.73;;
515;SDS011;244;48.508;9.052;2022-08-04T12:19:48;1.67;;;1.63;;
515;SDS011;244;48.508;9.052;2022-08-04T12:22:18;1.67;;;1.57;;
515;SDS011;244;48.508;9.052;2022-08-04T12:24:51;6.33;;;2.30;;
515;SDS011;244;48.508;9.052;2022-08-04T12:27:26;2.03;;;1.90;;
515;SDS011;244;48.508;9.052;2022-08-04T12:29:59;1.90;;;1.80;;
515;SDS011;244;48.508;9.052;2022-08-04T12:32:28;1.60;;;1.50;;
515;SDS011;244;48.508;9.052;2022-08-04T12:35:04;1.40;;;1.30;;
515;SDS011;244;48.508;9.052;2022-08-04T12:37:43;1.57;;;1.47;;
515;SDS011;244;48.508;9.052;2022-08-04T12:40:19;1.20;;;1.10;;
515;SDS011;244;48.508;9.052;2022-08-04T12:42:53;1.40;;;1.30;;
515;SDS011;244;48.508;9.052;2022-08-04T12:45:25;1.70;;;1.70;;
515;SDS011;244;48.508;9.052;2022-08-04T12:47:55;1.17;;;1.13;;
515;SDS011;244;48.508;9.052;2022-08-04T12:50:24;1.70;;;1.60;;
515;SDS011;244;48.508;9.052;2022-08-04T12:52:53;3.30;;;1.50;;
515;SDS011;244;48.508;9.052;2022-08-04T12:55:24;1.70;;;1.60;;
515;SDS011;244;48.508;9.052;2022-08-04T12:57:55;1.67;;;1.57;;
515;SDS011;244;48.508;9.052;2022-08-04T13:00:24;1.60;;;1.50;;
515;SDS011;244;48.508;9.052;2022-08-04T13:02:53;1.50;;;1.40;;
515;SDS011;244;48.508;9.052;2022-08-04T13:05:27;1.10;;;1.00;;
515;SDS011;244;48.508;9.052;2022-08-04T13:07:55;1.90;;;1.80;;
515;SDS011;244;48.508;9.052;2022-08-04T13:10:23;1.60;;;1.57;;
515;SDS011;244;48.508;9.052;2022-08-04T13:12:51;1.27;;;1.17;;
515;SDS011;244;48.508;9.052;2022-08-04T13:15:22;2.20;;;1.40;;
515;SDS011;244;48.508;9.052;2022-08-04T13:17:52;1.50;;;1.40;;
515;SDS011;244;48.508;9.052;2022-08-04T13:20:25;1.50;;;1.40;;
515;SDS011;244;48.508;9.052;2022-08-04T13:22:58;1.77;;;1.67;;
515;SDS011;244;48.508;9.052;2022-08-04T13:25:31;1.70;;;1.60;;
515;SDS011;244;48.508;9.052;2022-08-04T13:28:00;1.47;;;1.37;;
515;SDS011;244;48.508;9.052;2022-08-04T13:30:29;1.47;;;1.37;;
515;SDS011;244;48.508;9.052;2022-08-04T13:32:59;2.27;;;1.70;;
515;SDS011;244;48.508;9.052;2022-08-04T13:35:28;2.00;;;1.70;;
515;SDS011;244;48.508;9.052;2022-08-04T13:37:55;1.50;;;1.40;;
515;SDS011;244;48.508;9.052;2022-08-04T13:40:25;1.42;;;1.33;;
515;SDS011;244;48.508;9.052;2022-08-04T13:42:52;1.40;;;1.30;;
515;SDS011;244;48.508;9.052;2022-08-04T13:45:22;1.23;;;1.13;;
515;SDS011;244;48.508;9.052;2022-08-04T13:47:50;2.03;;;1.90;;
515;SDS011;244;48.508;9.052;2022-08-04T13:50:26;1.70;;;1.60;;
515;SDS011;244;48.508;9.052;2022-08-04T13:52:56;1.45;;;1.35;;
515;SDS011;244;48.508;9.052;2022-08-04T13:55:25;3.25;;;1.52;;
515;SDS011;244;48.508;9.052;2022-08-04T13:57:55;1.90;;;1.80;;
515;SDS011;244;48.508;9.052;2022-08-04T14:00:24;1.20;;;1.15;;
515;SDS011;244;48.508;9.052;2022-08-04T14:03:03;1.58;;;1.48;;
515;SDS011;244;48.508;9.052;2022-08-04T14:05:34;1.40;;;1.30;;
515;SDS011;244;48.508;9.052;2022-08-04T14:08:04;1.95;;;1.85;;
515;SDS011;244;48.508;9.052;2022-08-04T14:10:33;1.48;;;1.38;;
515;SDS011;244;48.508;9.052;2022-08-04T14:13:02;2.15;;;1.58;;
515;SDS011;244;48.508;9.052;2022-08-04T14:15:34;3.05;;;1.30;;
515;SDS011;244;48.508;9.052;2022-08-04T14:18:16;1.70;;;1.60;;
515;SDS011;244;48.508;9.052;2022-08-04T14:21:00;1.60;;;1.50;;
515;SDS011;244;48.508;9.052;2022-08-04T14:23:29;1.15;;;1.05;;
515;SDS011;244;48.508;9.052;2022-08-04T14:26:21;1.60;;;1.50;;
515;SDS011;244;48.508;9.052;2022-08-04T14:28:50;1.10;;;1.00;;
515;SDS011;244;48.508;9.052;2022-08-04T14:31:19;1.02;;;0.93;;
515;SDS011;244;48.508;9.052;2022-08-04T14:33:47;1.55;;;1.45;;
515;SDS011;244;48.508;9.052;2022-08-04T14:36:17;1.60;;;1.50;;
515;SDS011;244;48.508;9.052;2022-08-04T14:38:49;1.25;;;1.15;;
515;SDS011;244;48.508;9.052;2022-08-04T14:41:20;1.80;;;1.70;;
515;SDS011;244;48.508;9.052;2022-08-04T14:43:50;1.75;;;1.67;;
515;SDS011;244;48.508;9.052;2022-08-04T14:46:19;1.50;;;1.40;;
515;SDS011;244;48.508;9.052;2022-08-04T14:48:59;1.88;;;1.50;;
515;SDS011;244;48.508;9.052;2022-08-04T14:51:36;1.38;;;1.27;;
515;SDS011;244;48.508;9.052;2022-08-04T14:54:04;1.60;;;1.50;;
515;SDS011;244;48.508;9.052;2022-08-04T14:56:32;1.52;;;1.42;;
515;SDS011;244;48.508;9.052;2022-08-04T14:59:00;1.50;;;1.40;;
515;SDS011;244;48.508;9.052;2022-08-04T15:01:29;1.67;;;1.58;;
515;SDS011;244;48.508;9.052;2022-08-04T15:03:56;1.73;;;1.63;;
515;SDS011;244;48.508;9.052;2022-08-04T15:06:28;1.38;;;1.27;;
515;SDS011;244;48.508;9.052;2022-08-04T15:08:58;1.25;;;1.15;;
515;SDS011;244;48.508;9.052;2022-08-04T15:11:27;1.50;;;1.40;;
515;SDS011;244;48.508;9.052;2022-08-04T15:13:55;1.73;;;1.67;;
515;SDS011;244;48.508;9.052;2022-08-04T15:16:23;1.70;;;1.60;;
515;SDS011;244;48.508;9.052;2022-08-04T15:18:52;1.70;;;1.60;;
515;SDS011;244;48.508;9.052;2022-08-04T15:21:19;1.20;;;1.10;;
515;SDS011;244;48.508;9.052;2022-08-04T15:23:47;1.75;;;1.65;;
515;SDS011;244;48.508;9.052;2022-08-04T15:26:16;3.58;;;1.58;;
515;SDS011;244;48.508;9.052;2022-08-04T15:28:54;1.77;;;1.67;;
515;SDS011;244;48.508;9.052;2022-08-04T15:31:23;1.48;;;1.38;;
515;SDS011;244;48.508;9.052;2022-08-04T15:33:53;1.58;;;1.48;;
515;SDS011;244;48.508;9.052;2022-08-04T15:36:21;1.52;;;1.42;;
515;SDS011;244;48.508;9.052;2022-08-04T15:38:57;1.70;;;1.60;;
515;SDS011;244;48.508;9.052;2022-08-04T15:41:34;1.80;;;1.70;;
515;SDS011;244;48.508;9.052;2022-08-04T15:47:14;1.70;;;1.70;;
515;SDS011;244;48.508;9.052;2022-08-04T15:49:42;1.52;;;1.30;;
515;SDS011;244;48.508;9.052;2022-08-04T15:52:12;2.65;;;1.60;;
515;SDS011;244;48.508;9.052;2022-08-04T15:54:41;1.58;;;1.48;;
515;SDS011;244;48.508;9.052;2022-08-04T15:57:10;2.67;;;1.55;;
515;SDS011;244;48.508;9.052;2022-08-04T15:59:56;1.38;;;1.30;;
515;SDS011;244;48.508;9.052;2022-08-04T16:02:28;1.70;;;1.52;;
515;SDS011;244;48.508;9.052;2022-08-04T16:08:15;1.67;;;1.58;;
515;SDS011;244;48.508;9.052;2022-08-04T16:10:43;1.75;;;1.65;;
515;SDS011;244;48.508;9.052;2022-08-04T16:13:14;1.50;;;1.40;;
515;SDS011;244;48.508;9.052;2022-08-04T16:15:47;1.70;;;1.60;;
515;SDS011;244;48.508;9.052;2022-08-04T16:21:05;1.38;;;1.27;;
515;SDS011;244;48.508;9.052;2022-08-04T16:23:55;1.50;;;1.40;;
515;SDS011;244;48.508;9.052;2022-08-04T16:26:52;1.50;;;1.45;;
515;SDS011;244;48.508;9.052;2022-08-04T16:29:25;2.13;;;1.98;;
515;SDS011;244;48.508;9.052;2022-08-04T16:32:06;1.90;;;1.80;;
515;SDS011;244;48.508;9.052;2022-08-04T16:34:35;1.88;;;1.77;;
515;SDS011;244;48.508;9.052;2022-08-04T16:37:03;2.30;;;2.10;;
515;SDS011;244;48.508;9.052;2022-08-04T16:39:31;2.47;;;1.48;;
515;SDS011;244;48.508;9.052;2022-08-04T16:41:58;3.42;;;1.88;;
515;SDS011;244;48.508;9.052;2022-08-04T16:44:30;2.45;;;1.65;;
515;SDS011;244;48.508;9.052;2022-08-04T16:47:01;1.85;;;1.75;;
515;SDS011;244;48.508;9.052;2022-08-04T16:49:29;1.52;;;1.42;;
515;SDS011;244;48.508;9.052;2022-08-04T16:51:59;1.70;;;1.60;;
515;SDS011;244;48.508;9.052;2022-08-04T16:54:27;2.20;;;2.00;;
515;SDS011;244;48.508;9.052;2022-08-04T16:56:55;1.75;;;1.65;;
515;SDS011;244;48.508;9.052;2022-08-04T16:59:23;1.70;;;1.60;;
515;SDS011;244;48.508;9.052;2022-08-04T17:01:52;1.98;;;1.88;;
515;SDS011;244;48.508;9.052;2022-08-04T17:04:27;1.73;;;1.63;;
515;SDS011;244;48.508;9.052;2022-08-04T17:06:58;3.03;;;1.70;;
515;SDS011;244;48.508;9.052;2022-08-04T17:09:25;1.60;;;1.50;;
515;SDS011;244;48.508;9.052;2022-08-04T17:11:53;2.13;;;1.97;;
515;SDS011;244;48.508;9.052;2022-08-04T17:14:21;1.73;;;1.63;;
515;SDS011;244;48.508;9.052;2022-08-04T17:16:49;1.70;;;1.60;;